IN-0029 weather

Lunglei Helipad
Mizoram, India

Public forecast

Using degrees Celsius for public forecast. Weather courtesy of forecast.io.

METAR (pilot weather report)

Report is more than 6 hours old.

Closest report is Lengpui Airport, 58.9 nm (109.1 km) N. Retrieved 2019/08/21 07:00 UTC (22 hours ago):

VELP 210700Z 00000KT 4000 HZ SCT018 BKN100 30/24 Q1005 NOSIG

TAF (pilot weather forecast)

Forecast is more than 12 hours old.

Closest forecast is Shah Amanat International Airport, 64.5 nm (119.4 km) SW. Retrieved 2019/08/21 00:33 UTC (1 day ago):

TAF TAF VGEG 212300Z 2200/2306 16008KT 5000 SCT015 BKN100 TEMPO 2203/2206 16020KT 1500 RA/TSRA BKN008 FEW025CB OVC090 BECMG 2207/2209 20008KT 5000 SCT015 BKN100 BECMG 2218/2220 17005KT 5000 FEW018 SCT100 BECMG 2302/2304 16005KT 5000 FEW016 SCT100